Time;durP1;ratioP1;P1;durP2;ratioP2;P2;SDS_P1;SDS_P2;PMS_P1;PMS_P2;Temp;Humidity;BMP_temperature;BMP_pressure;BME280_temperature;BME280_humidity;BME280_pressure;Samples;Min_cycle;Max_cycle;Signal;HPM_P1;HPM_P2
2021/10/08 00:01:38;;;;;;;6.40;3.50;;;;;;;;;;6228859;28;20044;-80
2021/10/08 00:04:40;;;;;;;7.25;3.38;;;;;;;;;;6212091;28;20121;-80
2021/10/08 00:07:41;;;;;;;5.18;3.20;;;;;;;;;;6189807;28;20098;-80
2021/10/08 00:10:43;;;;;;;4.28;3.08;;;;;;;;;;6186719;28;20042;-80
2021/10/08 00:13:45;;;;;;;5.68;3.35;;;;;;;;;;6187440;28;20042;-81
2021/10/08 00:16:46;;;;;;;8.00;4.35;;;;;;;;;;6203588;28;20049;-80
2021/10/08 00:19:48;;;;;;;7.15;4.50;;;;;;;;;;6204225;28;20050;-81
2021/10/08 00:22:50;;;;;;;6.15;3.83;;;;;;;;;;6192269;28;20484;-81
2021/10/08 00:25:51;;;;;;;7.40;3.97;;;;;;;;;;6188524;28;20042;-81
2021/10/08 00:28:53;;;;;;;9.38;4.32;;;;;;;;;;6205223;28;20041;-81
2021/10/08 00:31:54;;;;;;;47.63;6.68;;;;;;;;;;6171419;28;20043;-82
2021/10/08 00:34:56;;;;;;;5.90;3.35;;;;;;;;;;6187810;28;20504;-80
2021/10/08 00:37:58;;;;;;;6.72;3.97;;;;;;;;;;6188614;28;20042;-81
2021/10/08 00:41:01;;;;;;;10.57;4.22;;;;;;;;;;6171880;28;20140;-81
2021/10/08 00:44:03;;;;;;;9.10;4.20;;;;;;;;;;6188409;28;20042;-81
2021/10/08 00:47:13;;;;;;;10.18;4.93;;;;;;;;;;6186428;28;20120;-82
2021/10/08 00:50:14;;;;;;;30.38;5.32;;;;;;;;;;6188283;28;20509;-82
2021/10/08 00:53:17;;;;;;;36.28;5.32;;;;;;;;;;6188479;28;20038;-81
2021/10/08 00:56:22;;;;;;;11.40;4.65;;;;;;;;;;6219626;28;20077;-82
2021/10/08 00:59:26;;;;;;;8.98;4.22;;;;;;;;;;6221042;28;20042;-81
2021/10/08 01:02:30;;;;;;;6.32;4.03;;;;;;;;;;6202770;28;20121;-82
2021/10/08 01:05:31;;;;;;;8.45;4.47;;;;;;;;;;6171433;28;20177;-80
2021/10/08 01:08:33;;;;;;;13.23;4.05;;;;;;;;;;6187982;28;20185;-80
2021/10/08 01:11:36;;;;;;;14.88;4.38;;;;;;;;;;6218712;28;20050;-81
2021/10/08 01:14:39;;;;;;;18.85;4.60;;;;;;;;;;6194375;28;20182;-81
2021/10/08 01:17:41;;;;;;;11.50;5.30;;;;;;;;;;6203516;28;20045;-81
2021/10/08 01:20:43;;;;;;;12.55;3.95;;;;;;;;;;6187522;28;20499;-82
2021/10/08 01:23:49;;;;;;;8.73;4.00;;;;;;;;;;6170960;28;20042;-81
2021/10/08 01:26:52;;;;;;;16.02;4.57;;;;;;;;;;6202354;28;20057;-81
2021/10/08 01:29:57;;;;;;;5.88;3.60;;;;;;;;;;6186191;28;20109;-80
2021/10/08 01:33:10;;;;;;;8.25;3.28;;;;;;;;;;6170985;28;20049;-81
2021/10/08 01:36:19;;;;;;;5.50;3.00;;;;;;;;;;6204503;28;20415;-80
2021/10/08 01:39:24;;;;;;;7.47;4.10;;;;;;;;;;6158548;28;20109;-81
2021/10/08 01:42:28;;;;;;;8.18;3.90;;;;;;;;;;6183288;28;20042;-81
2021/10/08 01:45:30;;;;;;;8.65;3.88;;;;;;;;;;6186109;28;20049;-80
2021/10/08 01:48:33;;;;;;;6.40;3.70;;;;;;;;;;6184958;28;20077;-81
2021/10/08 01:51:34;;;;;;;7.68;3.40;;;;;;;;;;6219044;28;20038;-80
2021/10/08 01:54:36;;;;;;;6.80;4.03;;;;;;;;;;6216773;28;20042;-82
2021/10/08 01:57:38;;;;;;;11.73;4.57;;;;;;;;;;6185816;28;20048;-81
2021/10/08 02:00:40;;;;;;;9.60;4.28;;;;;;;;;;6168868;28;20046;-82
2021/10/08 02:03:54;;;;;;;9.98;3.55;;;;;;;;;;6197672;28;20065;-82
2021/10/08 02:07:00;;;;;;;13.88;3.70;;;;;;;;;;6149032;28;1079958;-80
2021/10/08 02:10:03;;;;;;;5.53;3.55;;;;;;;;;;6169778;28;20054;-81
2021/10/08 02:13:08;;;;;;;9.48;3.88;;;;;;;;;;6212532;28;20043;-81
2021/10/08 02:16:12;;;;;;;6.72;3.42;;;;;;;;;;6208729;28;20069;-83
2021/10/08 02:19:21;;;;;;;12.55;4.32;;;;;;;;;;6182742;28;20042;-81
2021/10/08 02:22:28;;;;;;;18.55;4.28;;;;;;;;;;6184098;28;20051;-80
2021/10/08 02:25:30;;;;;;;11.70;3.92;;;;;;;;;;6182580;28;20054;-81
2021/10/08 02:28:32;;;;;;;18.23;3.90;;;;;;;;;;6183118;28;20092;-81
2021/10/08 02:31:34;;;;;;;10.25;3.97;;;;;;;;;;6185955;28;20042;-81
2021/10/08 02:34:38;;;;;;;6.15;3.60;;;;;;;;;;6202364;28;20034;-81
2021/10/08 02:37:39;;;;;;;11.40;5.15;;;;;;;;;;6186076;28;20042;-81
2021/10/08 02:40:42;;;;;;;8.80;4.53;;;;;;;;;;6186222;28;20127;-81
2021/10/08 02:43:43;;;;;;;10.00;3.80;;;;;;;;;;6200781;28;20623;-81
2021/10/08 02:46:46;;;;;;;6.07;3.47;;;;;;;;;;6216870;28;20042;-82
2021/10/08 02:49:48;;;;;;;5.53;3.38;;;;;;;;;;6204252;28;20668;-81
2021/10/08 02:52:50;;;;;;;8.25;3.85;;;;;;;;;;6168143;28;20042;-81
2021/10/08 02:55:53;;;;;;;5.90;3.47;;;;;;;;;;6184743;28;20057;-81
2021/10/08 02:58:54;;;;;;;8.27;3.67;;;;;;;;;;6185970;28;20129;-82
2021/10/08 03:01:56;;;;;;;13.68;4.07;;;;;;;;;;6166133;28;20078;-81
2021/10/08 03:04:58;;;;;;;18.92;3.97;;;;;;;;;;6176748;28;20591;-82
2021/10/08 03:08:00;;;;;;;16.25;4.18;;;;;;;;;;6221351;28;20407;-81
2021/10/08 03:11:04;;;;;;;13.15;5.07;;;;;;;;;;6190394;28;20058;-82
2021/10/08 03:14:06;;;;;;;7.25;4.15;;;;;;;;;;6171627;28;20042;-82
2021/10/08 03:17:08;;;;;;;18.25;4.57;;;;;;;;;;6169075;28;20038;-81
2021/10/08 03:20:11;;;;;;;15.55;4.63;;;;;;;;;;6191192;28;20073;-82
2021/10/08 03:23:14;;;;;;;17.92;5.32;;;;;;;;;;6227253;28;20042;-81
2021/10/08 03:26:15;;;;;;;7.82;4.47;;;;;;;;;;6181327;28;20125;-81
2021/10/08 03:29:17;;;;;;;9.70;4.20;;;;;;;;;;6186541;28;20038;-81
2021/10/08 03:32:19;;;;;;;8.80;4.38;;;;;;;;;;6180538;28;20503;-82
2021/10/08 03:35:20;;;;;;;10.10;3.97;;;;;;;;;;6189276;28;20125;-81
2021/10/08 03:38:22;;;;;;;7.30;3.85;;;;;;;;;;6203176;28;20046;-81
2021/10/08 03:41:25;;;;;;;8.88;3.85;;;;;;;;;;6203070;28;20054;-81
2021/10/08 03:44:34;;;;;;;9.63;4.35;;;;;;;;;;6169954;28;20042;-81
2021/10/08 03:47:54;;;;;;;7.65;3.83;;;;;;;;;;6169831;28;20069;-82
2021/10/08 03:50:55;;;;;;;7.13;3.65;;;;;;;;;;6189345;28;20043;-81
2021/10/08 03:53:58;;;;;;;7.80;4.03;;;;;;;;;;6188463;28;20042;-81
2021/10/08 03:57:00;;;;;;;7.90;4.30;;;;;;;;;;6188221;28;20056;-82
2021/10/08 04:00:03;;;;;;;12.65;4.07;;;;;;;;;;6189698;28;20415;-81
2021/10/08 04:03:16;;;;;;;7.38;3.90;;;;;;;;;;6180430;28;20051;-82
2021/10/08 04:06:17;;;;;;;12.32;4.05;;;;;;;;;;6181618;28;20035;-81
2021/10/08 04:09:19;;;;;;;7.03;4.13;;;;;;;;;;6197017;28;20106;-81
2021/10/08 04:12:22;;;;;;;8.30;4.22;;;;;;;;;;6175349;28;20393;-81
2021/10/08 04:15:24;;;;;;;9.05;3.92;;;;;;;;;;6189635;28;20120;-81
2021/10/08 04:18:27;;;;;;;9.48;5.05;;;;;;;;;;6186349;28;20129;-82
2021/10/08 04:21:28;;;;;;;14.25;5.28;;;;;;;;;;6189813;28;20056;-83
2021/10/08 04:24:30;;;;;;;8.18;4.53;;;;;;;;;;6219721;28;20112;-82
2021/10/08 04:27:32;;;;;;;9.38;4.80;;;;;;;;;;6187194;28;20046;-82
2021/10/08 04:30:35;;;;;;;7.93;4.40;;;;;;;;;;6203758;28;20471;-82
2021/10/08 04:33:37;;;;;;;10.10;4.90;;;;;;;;;;6172361;28;20101;-81
2021/10/08 04:36:40;;;;;;;10.98;4.68;;;;;;;;;;6166214;28;21298;-82
2021/10/08 04:39:43;;;;;;;10.40;5.45;;;;;;;;;;6148477;28;20051;-81
2021/10/08 04:42:44;;;;;;;18.77;8.13;;;;;;;;;;6215427;28;20046;-81
2021/10/08 04:45:49;;;;;;;14.63;6.68;;;;;;;;;;6185575;28;20065;-82
2021/10/08 04:48:52;;;;;;;12.40;6.35;;;;;;;;;;6194182;28;20057;-82
2021/10/08 04:51:54;;;;;;;12.18;6.30;;;;;;;;;;6172558;28;20046;-82
2021/10/08 04:54:56;;;;;;;13.55;5.30;;;;;;;;;;6169459;28;20050;-81
2021/10/08 04:57:58;;;;;;;11.20;4.63;;;;;;;;;;6186575;28;20096;-82
2021/10/08 05:01:05;;;;;;;12.07;4.95;;;;;;;;;;6188890;28;20499;-82
2021/10/08 05:04:08;;;;;;;12.48;5.03;;;;;;;;;;6186927;28;20166;-82
2021/10/08 05:07:10;;;;;;;10.40;4.85;;;;;;;;;;6188432;28;20046;-81
2021/10/08 05:10:15;;;;;;;14.88;5.20;;;;;;;;;;6186306;28;20050;-83
2021/10/08 05:13:17;;;;;;;11.63;5.20;;;;;;;;;;6187146;28;20046;-82
2021/10/08 05:16:19;;;;;;;9.52;4.90;;;;;;;;;;6188862;28;20042;-81
2021/10/08 05:19:21;;;;;;;10.85;5.10;;;;;;;;;;6189807;28;20047;-81
2021/10/08 05:22:29;;;;;;;15.30;5.32;;;;;;;;;;6180724;28;20125;-81
2021/10/08 05:25:31;;;;;;;11.48;4.72;;;;;;;;;;6198308;28;20046;-82
2021/10/08 05:28:35;;;;;;;11.15;5.38;;;;;;;;;;6195325;28;20046;-81
2021/10/08 05:31:36;;;;;;;11.48;5.80;;;;;;;;;;6186675;28;20093;-82
2021/10/08 05:34:40;;;;;;;16.95;6.13;;;;;;;;;;6188074;28;20043;-83
2021/10/08 05:37:43;;;;;;;16.25;5.90;;;;;;;;;;6171770;28;20053;-82
2021/10/08 05:40:47;;;;;;;11.25;4.88;;;;;;;;;;6207082;28;20500;-82
2021/10/08 05:43:51;;;;;;;10.02;5.53;;;;;;;;;;6223015;28;20034;-83
2021/10/08 05:46:54;;;;;;;11.77;5.80;;;;;;;;;;6190716;28;20042;-82
2021/10/08 05:49:55;;;;;;;13.35;6.00;;;;;;;;;;6190262;28;20046;-83
2021/10/08 05:52:57;;;;;;;12.27;6.00;;;;;;;;;;6189793;28;20070;-83
2021/10/08 05:55:58;;;;;;;11.75;5.82;;;;;;;;;;6189757;28;20124;-82
2021/10/08 05:59:00;;;;;;;12.77;5.80;;;;;;;;;;6206425;28;20061;-83
2021/10/08 06:02:02;;;;;;;13.70;5.75;;;;;;;;;;6205253;28;20539;-83
2021/10/08 06:05:04;;;;;;;11.98;5.55;;;;;;;;;;6195048;28;20322;-83
2021/10/08 06:08:08;;;;;;;12.68;6.00;;;;;;;;;;6197254;28;20394;-83
2021/10/08 06:11:17;;;;;;;15.15;6.32;;;;;;;;;;6169785;28;20050;-83
2021/10/08 06:14:20;;;;;;;13.75;6.93;;;;;;;;;;6186795;28;20042;-81
2021/10/08 06:17:23;;;;;;;10.48;5.68;;;;;;;;;;6186030;28;20042;-81
2021/10/08 06:20:26;;;;;;;10.52;5.32;;;;;;;;;;6219878;28;20116;-83
2021/10/08 06:23:29;;;;;;;8.40;4.68;;;;;;;;;;6172941;28;20121;-82
2021/10/08 06:26:31;;;;;;;8.85;4.72;;;;;;;;;;6221129;28;20038;-80
2021/10/08 06:29:32;;;;;;;12.65;5.05;;;;;;;;;;6221395;28;20047;-82
2021/10/08 06:32:34;;;;;;;14.27;4.63;;;;;;;;;;6220116;28;20504;-83
2021/10/08 06:35:38;;;;;;;9.80;5.45;;;;;;;;;;6189444;28;20042;-82
2021/10/08 06:38:40;;;;;;;10.10;4.95;;;;;;;;;;6175348;28;20034;-82
2021/10/08 06:41:42;;;;;;;12.15;5.95;;;;;;;;;;6187303;28;20059;-82
2021/10/08 06:44:53;;;;;;;11.60;5.93;;;;;;;;;;6177243;28;20042;-82
2021/10/08 06:47:56;;;;;;;12.35;5.72;;;;;;;;;;6183685;28;20050;-81
2021/10/08 06:50:59;;;;;;;14.03;6.30;;;;;;;;;;6226481;28;20050;-81
2021/10/08 06:54:00;;;;;;;14.93;6.00;;;;;;;;;;6194950;28;20050;-81
2021/10/08 06:57:02;;;;;;;13.77;7.00;;;;;;;;;;6192257;28;20499;-82
2021/10/08 07:00:08;;;;;;;15.05;7.93;;;;;;;;;;6178165;28;20530;-82
2021/10/08 07:03:10;;;;;;;;;;;;;;;;;;6176873;28;20078;-81
2021/10/08 07:06:15;;;;;;;12.68;6.35;;;;;;;;;;6209445;28;20418;-81
2021/10/08 07:09:17;;;;;;;9.02;4.95;;;;;;;;;;6192830;28;20035;-82
2021/10/08 07:12:19;;;;;;;6.78;3.97;;;;;;;;;;6224804;28;20046;-82
2021/10/08 07:15:22;;;;;;;8.18;5.18;;;;;;;;;;6191856;28;20049;-81
2021/10/08 07:18:33;;;;;;;8.45;4.90;;;;;;;;;;6190620;28;20052;-80
2021/10/08 07:21:36;;;;;;;11.00;5.55;;;;;;;;;;6223706;28;20050;-82
2021/10/08 07:24:38;;;;;;;10.15;5.78;;;;;;;;;;6204784;28;20038;-82
2021/10/08 07:27:41;;;;;;;10.00;5.45;;;;;;;;;;6223707;28;20042;-82
2021/10/08 07:30:43;;;;;;;;;;;;;;;;;;6191657;28;20043;-81
2021/10/08 07:33:44;;;;;;;7.80;5.18;;;;;;;;;;6190828;28;19922;-82
2021/10/08 07:36:46;;;;;;;8.45;5.55;;;;;;;;;;6192730;28;20474;-82
2021/10/08 07:39:47;;;;;;;10.02;5.53;;;;;;;;;;6192851;28;20619;-80
2021/10/08 07:42:49;;;;;;;7.40;5.28;;;;;;;;;;6208706;28;20255;-82
2021/10/08 07:45:51;;;;;;;8.88;5.13;;;;;;;;;;6193350;28;20042;-83
2021/10/08 07:48:52;;;;;;;6.70;4.13;;;;;;;;;;6189071;28;20042;-80
2021/10/08 07:51:54;;;;;;;5.82;3.83;;;;;;;;;;6194809;28;20125;-80
2021/10/08 07:54:56;;;;;;;6.40;3.72;;;;;;;;;;6193641;28;20042;-82
2021/10/08 07:57:57;;;;;;;6.18;3.80;;;;;;;;;;6194889;28;20129;-82
2021/10/08 08:01:00;;;;;;;6.15;3.85;;;;;;;;;;6194390;28;20050;-81
2021/10/08 08:04:02;;;;;;;8.57;4.10;;;;;;;;;;6194342;28;20042;-83
2021/10/08 08:07:05;;;;;;;10.30;4.30;;;;;;;;;;6199151;28;20559;-83
2021/10/08 08:10:08;;;;;;;6.93;4.20;;;;;;;;;;6198778;28;20045;-83
2021/10/08 08:13:11;;;;;;;7.55;4.18;;;;;;;;;;6193098;28;20065;-82
2021/10/08 08:16:12;;;;;;;5.93;3.72;;;;;;;;;;6195688;28;20046;-81
2021/10/08 08:19:14;;;;;;;7.07;3.80;;;;;;;;;;6194509;28;20050;-81
2021/10/08 08:22:16;;;;;;;7.65;4.22;;;;;;;;;;6212383;28;20053;-82
2021/10/08 08:25:17;;;;;;;6.30;4.45;;;;;;;;;;6195263;28;20050;-82
2021/10/08 08:28:19;;;;;;;5.85;3.60;;;;;;;;;;6195821;28;20050;-82
2021/10/08 08:31:20;;;;;;;6.65;4.25;;;;;;;;;;6229443;28;20546;-80
2021/10/08 08:34:23;;;;;;;6.90;4.55;;;;;;;;;;6197719;28;20042;-80
2021/10/08 08:37:25;;;;;;;6.10;4.05;;;;;;;;;;6179475;28;20046;-82
2021/10/08 08:40:29;;;;;;;8.50;4.30;;;;;;;;;;6228466;28;20047;-82
2021/10/08 08:43:30;;;;;;;7.97;4.63;;;;;;;;;;6196197;28;20482;-81
2021/10/08 08:46:34;;;;;;;7.25;4.40;;;;;;;;;;6195566;28;20492;-82
2021/10/08 08:49:36;;;;;;;7.05;4.80;;;;;;;;;;6195465;28;20046;-80
2021/10/08 08:52:38;;;;;;;7.10;5.10;;;;;;;;;;6195613;28;20104;-80
2021/10/08 08:55:39;;;;;;;7.10;4.85;;;;;;;;;;6195603;28;20069;-82
2021/10/08 08:58:41;;;;;;;7.88;4.65;;;;;;;;;;6198016;28;20058;-82
2021/10/08 09:02:03;;;;;;;7.28;5.07;;;;;;;;;;6196979;28;20042;-82
2021/10/08 09:05:06;;;;;;;7.70;4.50;;;;;;;;;;6195045;28;20431;-80
2021/10/08 09:08:08;;;;;;;;;;;;;;;;;;6199551;28;20385;-82
2021/10/08 09:11:10;;;;;;;6.85;4.78;;;;;;;;;;6199614;28;19921;-83
2021/10/08 09:14:17;;;;;;;6.35;4.75;;;;;;;;;;6199247;28;20046;-82
2021/10/08 09:17:20;;;;;;;8.98;4.80;;;;;;;;;;6194715;28;20043;-82
2021/10/08 09:20:21;;;;;;;6.75;4.50;;;;;;;;;;6194804;28;20062;-82
2021/10/08 09:23:32;;;;;;;6.68;4.20;;;;;;;;;;6195224;28;20081;-82
2021/10/08 09:26:33;;;;;;;9.85;4.85;;;;;;;;;;6228923;28;20052;-82
2021/10/08 09:29:35;;;;;;;6.95;4.20;;;;;;;;;;6199331;28;20030;-81
2021/10/08 09:32:45;;;;;;;5.80;4.60;;;;;;;;;;6197918;28;20110;-82
2021/10/08 09:35:50;;;;;;;4.20;3.72;;;;;;;;;;6198762;28;20519;-83
2021/10/08 09:38:51;;;;;;;4.38;3.85;;;;;;;;;;6198894;28;20038;-82
2021/10/08 09:42:00;;;;;;;7.43;4.50;;;;;;;;;;6198174;28;20042;-82
2021/10/08 09:45:03;;;;;;;6.10;4.22;;;;;;;;;;6199048;28;20057;-82
2021/10/08 09:48:06;;;;;;;5.97;3.85;;;;;;;;;;6197716;28;20038;-83
2021/10/08 09:51:10;;;;;;;;;;;;;;;;;;6196056;28;20089;-82
2021/10/08 09:54:12;;;;;;;6.75;3.75;;;;;;;;;;6197400;28;19932;-80
2021/10/08 09:57:13;;;;;;;5.03;3.80;;;;;;;;;;6196390;28;20105;-83
2021/10/08 10:00:33;;;;;;;5.80;3.38;;;;;;;;;;6194775;28;20378;-83
2021/10/08 10:03:35;;;;;;;4.78;4.00;;;;;;;;;;6197609;28;20042;-84
2021/10/08 10:06:38;;;;;;;3.97;3.20;;;;;;;;;;6227370;28;20098;-82
2021/10/08 10:09:40;;;;;;;4.45;3.45;;;;;;;;;;6194999;28;20044;-83
2021/10/08 10:13:04;;;;;;;3.92;3.45;;;;;;;;;;6202532;28;20058;-84
2021/10/08 10:16:06;;;;;;;5.28;3.55;;;;;;;;;;6203480;28;20053;-83
2021/10/08 10:19:08;;;;;;;6.70;3.88;;;;;;;;;;6207985;28;20161;-84
2021/10/08 10:22:18;;;;;;;5.30;3.63;;;;;;;;;;6196647;28;20046;-80
2021/10/08 10:25:21;;;;;;;6.45;4.18;;;;;;;;;;6199270;28;20122;-84
2021/10/08 10:28:22;;;;;;;4.47;3.50;;;;;;;;;;6198298;28;20034;-83
2021/10/08 10:31:25;;;;;;;5.47;3.47;;;;;;;;;;6200151;28;20046;-82
2021/10/08 10:34:33;;;;;;;4.53;3.85;;;;;;;;;;6197480;28;20045;-82
2021/10/08 10:37:41;;;;;;;5.70;4.20;;;;;;;;;;6215101;28;20054;-82
2021/10/08 10:40:43;;;;;;;4.72;3.90;;;;;;;;;;6230422;28;20124;-83
2021/10/08 10:43:48;;;;;;;5.53;3.92;;;;;;;;;;6199256;28;20439;-83
2021/10/08 10:50:14;;;;;;;5.60;4.07;;;;;;;;;;6200232;28;20050;-83
2021/10/08 10:53:15;;;;;;;5.82;3.90;;;;;;;;;;6214083;28;20122;-85
2021/10/08 10:56:35;;;;;;;4.30;3.65;;;;;;;;;;6195678;28;20045;-82
2021/10/08 10:59:41;;;;;;;5.13;3.92;;;;;;;;;;6197535;28;20149;-83
2021/10/08 11:02:42;;;;;;;5.00;3.90;;;;;;;;;;6187814;28;20049;-83
2021/10/08 11:06:09;;;;;;;6.68;4.25;;;;;;;;;;6174094;28;20053;-83
2021/10/08 11:09:15;;;;;;;5.57;4.40;;;;;;;;;;6188047;28;20619;-82
2021/10/08 11:12:34;;;;;;;5.35;4.63;;;;;;;;;;6190742;28;20045;-82
2021/10/08 11:15:36;;;;;;;5.57;4.60;;;;;;;;;;6195044;28;20068;-84
2021/10/08 11:18:40;;;;;;;5.95;4.63;;;;;;;;;;6194782;28;20066;-83
2021/10/08 11:21:42;;;;;;;6.72;4.55;;;;;;;;;;6195803;28;20042;-84
2021/10/08 11:24:43;;;;;;;5.90;4.05;;;;;;;;;;6211315;28;20765;-82
2021/10/08 11:27:46;;;;;;;5.78;4.43;;;;;;;;;;6195508;28;20039;-82
2021/10/08 11:30:49;;;;;;;7.28;4.63;;;;;;;;;;6193414;28;20042;-84
2021/10/08 11:33:53;;;;;;;7.60;5.15;;;;;;;;;;6205205;28;20051;-83
2021/10/08 11:36:56;;;;;;;6.70;5.05;;;;;;;;;;6195455;28;20112;-83
2021/10/08 11:39:59;;;;;;;;;;;;;;;;;;6224199;28;20051;-82
2021/10/08 11:43:07;;;;;;;6.07;4.85;;;;;;;;;;6192453;28;19922;-82
2021/10/08 11:52:41;;;;;;;8.65;6.15;;;;;;;;;;6196004;28;20056;-81
2021/10/08 11:55:43;;;;;;;7.10;5.82;;;;;;;;;;6194697;28;20048;-83
2021/10/08 11:58:44;;;;;;;8.38;6.13;;;;;;;;;;6195622;28;20046;-82
2021/10/08 12:01:46;;;;;;;8.57;6.13;;;;;;;;;;6194738;28;20053;-80
2021/10/08 12:04:58;;;;;;;7.93;5.97;;;;;;;;;;6202155;28;20061;-83
2021/10/08 12:08:02;;;;;;;10.07;6.38;;;;;;;;;;6196908;28;20056;-82
2021/10/08 12:11:08;;;;;;;9.75;6.28;;;;;;;;;;6167783;28;20439;-81
2021/10/08 12:14:09;;;;;;;9.25;6.30;;;;;;;;;;6158870;28;20042;-81
2021/10/08 12:17:12;;;;;;;10.20;6.15;;;;;;;;;;6221563;28;20043;-81
2021/10/08 12:20:23;;;;;;;10.10;6.85;;;;;;;;;;6189988;28;20062;-83
2021/10/08 12:23:25;;;;;;;9.75;6.40;;;;;;;;;;6178092;28;20050;-82
2021/10/08 12:26:28;;;;;;;9.77;6.75;;;;;;;;;;6193800;28;20049;-82
2021/10/08 12:29:43;;;;;;;10.35;6.63;;;;;;;;;;6197591;28;20053;-82
2021/10/08 12:33:00;;;;;;;10.60;7.00;;;;;;;;;;6171875;28;20096;-82
2021/10/08 12:36:16;;;;;;;10.20;6.45;;;;;;;;;;6186132;28;20094;-82
2021/10/08 12:39:19;;;;;;;9.40;7.15;;;;;;;;;;6180509;28;20118;-82
2021/10/08 12:42:23;;;;;;;8.77;6.60;;;;;;;;;;6203124;28;20063;-82
2021/10/08 12:45:35;;;;;;;8.40;6.60;;;;;;;;;;6196076;28;20062;-81
2021/10/08 12:48:37;;;;;;;9.88;6.75;;;;;;;;;;6190676;28;20050;-81
2021/10/08 12:51:47;;;;;;;10.05;6.65;;;;;;;;;;6190390;28;20051;-82
2021/10/08 12:55:07;;;;;;;10.77;6.72;;;;;;;;;;6191407;28;20050;-80
2021/10/08 12:58:11;;;;;;;7.57;6.15;;;;;;;;;;6188201;28;20043;-82
2021/10/08 13:01:14;;;;;;;8.70;6.38;;;;;;;;;;6227562;28;20046;-80
2021/10/08 13:04:19;;;;;;;10.63;7.05;;;;;;;;;;6194121;28;20050;-80
2021/10/08 13:07:21;;;;;;;9.75;7.47;;;;;;;;;;6192807;28;20046;-80
2021/10/08 13:10:23;;;;;;;9.73;6.95;;;;;;;;;;6190285;28;20062;-81
2021/10/08 13:13:27;;;;;;;10.07;7.10;;;;;;;;;;6189767;28;20052;-81
2021/10/08 13:16:31;;;;;;;10.52;7.28;;;;;;;;;;6187256;28;20053;-81
2021/10/08 13:19:35;;;;;;;12.07;7.43;;;;;;;;;;6208562;28;20050;-82
2021/10/08 13:22:37;;;;;;;10.95;7.63;;;;;;;;;;6190358;28;20072;-82
2021/10/08 13:25:43;;;;;;;12.00;7.68;;;;;;;;;;6194476;28;20061;-81
2021/10/08 13:28:45;;;;;;;12.43;8.35;;;;;;;;;;6187961;28;20046;-83
2021/10/08 13:31:47;;;;;;;12.57;7.63;;;;;;;;;;6195071;28;20042;-81
2021/10/08 13:34:48;;;;;;;12.32;8.15;;;;;;;;;;6197592;28;20469;-81
2021/10/08 13:37:50;;;;;;;14.05;8.85;;;;;;;;;;6196235;28;20050;-81
2021/10/08 13:40:53;;;;;;;14.65;8.27;;;;;;;;;;6179888;28;20066;-81
2021/10/08 13:43:54;;;;;;;10.82;7.90;;;;;;;;;;6196526;28;20048;-80
2021/10/08 13:46:56;;;;;;;11.45;7.47;;;;;;;;;;6228900;28;20420;-81
2021/10/08 13:49:58;;;;;;;11.52;8.30;;;;;;;;;;6199858;28;20050;-82
2021/10/08 13:52:59;;;;;;;11.55;8.27;;;;;;;;;;6200858;28;20042;-82
2021/10/08 13:56:01;;;;;;;11.33;8.37;;;;;;;;;;6201200;28;20081;-80
2021/10/08 13:59:03;;;;;;;15.77;8.30;;;;;;;;;;6197265;28;20073;-80
2021/10/08 14:02:12;;;;;;;12.63;8.65;;;;;;;;;;6232718;28;20054;-81
2021/10/08 14:05:40;;;;;;;9.52;7.85;;;;;;;;;;6200494;28;20038;-81
2021/10/08 14:11:58;;;;;;;9.80;6.95;;;;;;;;;;6201581;28;20046;-80
2021/10/08 14:14:59;;;;;;;11.43;7.40;;;;;;;;;;6233623;28;20122;-80
2021/10/08 14:18:01;;;;;;;11.75;8.10;;;;;;;;;;6199609;28;20511;-82
2021/10/08 14:21:03;;;;;;;12.50;8.25;;;;;;;;;;6201383;28;20153;-79
2021/10/08 14:24:04;;;;;;;10.00;7.93;;;;;;;;;;6201125;28;20268;-80
2021/10/08 14:27:06;;;;;;;12.55;8.30;;;;;;;;;;6198503;28;20050;-82
2021/10/08 14:30:11;;;;;;;10.43;7.68;;;;;;;;;;6232295;28;20054;-79
2021/10/08 14:33:12;;;;;;;9.70;7.80;;;;;;;;;;6201345;28;20097;-82
2021/10/08 14:36:14;;;;;;;10.65;7.65;;;;;;;;;;6203080;28;20042;-80
2021/10/08 14:39:15;;;;;;;9.77;7.63;;;;;;;;;;6230868;28;20047;-80
2021/10/08 14:42:18;;;;;;;11.55;7.35;;;;;;;;;;6198949;28;20431;-82
2021/10/08 14:45:19;;;;;;;11.48;8.35;;;;;;;;;;6203546;28;20077;-82
2021/10/08 14:48:21;;;;;;;11.20;8.05;;;;;;;;;;6180004;28;20050;-82
2021/10/08 14:51:27;;;;;;;10.80;8.15;;;;;;;;;;6190615;28;20050;-81
2021/10/08 14:54:47;;;;;;;11.30;7.63;;;;;;;;;;6180453;28;20114;-81
2021/10/08 14:57:58;;;;;;;11.27;7.43;;;;;;;;;;6217073;28;20057;-82
2021/10/08 15:01:00;;;;;;;11.77;7.40;;;;;;;;;;6183400;28;20045;-81
2021/10/08 15:04:03;;;;;;;10.05;7.65;;;;;;;;;;6229037;28;20042;-81
2021/10/08 15:07:04;;;;;;;10.50;7.32;;;;;;;;;;6200184;28;20046;-82
2021/10/08 15:10:07;;;;;;;10.90;8.20;;;;;;;;;;6194203;28;20050;-82
2021/10/08 15:13:09;;;;;;;10.55;7.63;;;;;;;;;;6192029;28;20074;-81
2021/10/08 15:16:11;;;;;;;12.27;7.57;;;;;;;;;;6178794;28;20050;-82
2021/10/08 15:19:13;;;;;;;11.55;7.45;;;;;;;;;;6194550;28;20500;-80
2021/10/08 15:22:15;;;;;;;11.88;7.90;;;;;;;;;;6179608;28;20108;-81
2021/10/08 15:25:21;;;;;;;9.85;7.20;;;;;;;;;;6197588;28;20102;-83
2021/10/08 15:28:24;;;;;;;8.35;6.88;;;;;;;;;;6197106;28;20043;-82
2021/10/08 15:31:26;;;;;;;10.33;7.37;;;;;;;;;;6195871;28;20054;-81
2021/10/08 15:34:28;;;;;;;10.90;8.20;;;;;;;;;;6194471;28;20116;-82
2021/10/08 15:37:30;;;;;;;10.15;7.28;;;;;;;;;;6190518;28;20046;-82
2021/10/08 15:40:32;;;;;;;9.80;7.28;;;;;;;;;;6192260;28;20070;-83
2021/10/08 15:43:33;;;;;;;10.00;7.50;;;;;;;;;;6181932;28;20046;-81
2021/10/08 15:46:35;;;;;;;9.85;7.43;;;;;;;;;;6222169;28;20046;-82
2021/10/08 15:49:37;;;;;;;11.82;7.25;;;;;;;;;;6197677;28;20053;-81
2021/10/08 15:52:39;;;;;;;11.80;8.27;;;;;;;;;;6199901;28;20093;-81
2021/10/08 15:55:41;;;;;;;10.35;7.40;;;;;;;;;;6189809;28;20046;-82
2021/10/08 15:58:42;;;;;;;11.75;7.93;;;;;;;;;;6187643;28;20134;-82
2021/10/08 16:01:44;;;;;;;11.18;8.73;;;;;;;;;;6192878;28;20459;-82
2021/10/08 16:04:46;;;;;;;11.37;8.27;;;;;;;;;;6187613;28;20054;-82
2021/10/08 16:07:48;;;;;;;10.98;7.65;;;;;;;;;;6201319;28;20058;-81
2021/10/08 16:10:50;;;;;;;12.65;8.43;;;;;;;;;;6233725;28;20046;-83
2021/10/08 16:13:52;;;;;;;11.02;8.30;;;;;;;;;;6203947;28;20180;-83
2021/10/08 16:16:54;;;;;;;11.90;8.43;;;;;;;;;;6196649;28;21868;-80
2021/10/08 16:19:56;;;;;;;13.02;8.77;;;;;;;;;;6199381;28;20060;-81
2021/10/08 16:22:57;;;;;;;11.50;7.82;;;;;;;;;;6200424;28;20049;-80
2021/10/08 16:25:59;;;;;;;11.52;7.55;;;;;;;;;;6197590;28;20078;-81
2021/10/08 16:29:01;;;;;;;11.88;8.00;;;;;;;;;;6189836;28;20039;-82
2021/10/08 16:32:04;;;;;;;14.23;8.45;;;;;;;;;;6195120;28;20110;-82
2021/10/08 16:35:06;;;;;;;11.45;8.00;;;;;;;;;;6188021;28;20039;-82
2021/10/08 16:38:07;;;;;;;13.63;8.85;;;;;;;;;;6231186;28;20042;-83
2021/10/08 16:41:09;;;;;;;13.25;8.00;;;;;;;;;;6185757;28;20065;-82
2021/10/08 16:44:10;;;;;;;12.63;7.80;;;;;;;;;;6188698;28;20042;-82
2021/10/08 16:47:12;;;;;;;11.82;8.18;;;;;;;;;;6185700;28;20042;-80
2021/10/08 16:50:14;;;;;;;11.13;7.90;;;;;;;;;;6190408;28;20049;-81
2021/10/08 16:53:19;;;;;;;12.95;8.75;;;;;;;;;;6189367;28;20043;-82
2021/10/08 16:56:20;;;;;;;14.15;8.20;;;;;;;;;;6197388;28;20065;-83
2021/10/08 16:59:22;;;;;;;16.40;8.27;;;;;;;;;;6202039;28;20042;-83
2021/10/08 17:02:23;;;;;;;16.45;8.70;;;;;;;;;;6199189;28;20870;-83
2021/10/08 17:05:25;;;;;;;12.88;8.50;;;;;;;;;;6200328;28;20106;-82
2021/10/08 17:08:27;;;;;;;17.40;12.57;;;;;;;;;;6201920;28;20069;-83
2021/10/08 17:11:28;;;;;;;16.83;11.48;;;;;;;;;;6202065;28;20053;-83
2021/10/08 17:14:30;;;;;;;16.48;11.32;;;;;;;;;;6195843;28;20030;-83
2021/10/08 17:17:32;;;;;;;14.68;9.65;;;;;;;;;;6179591;28;20038;-83
2021/10/08 17:20:34;;;;;;;20.33;12.70;;;;;;;;;;6180330;28;20050;-81
2021/10/08 17:23:45;;;;;;;23.73;13.98;;;;;;;;;;6193506;28;20507;-82
2021/10/08 17:26:56;;;;;;;20.52;13.60;;;;;;;;;;6191566;28;20042;-84
2021/10/08 17:30:14;;;;;;;17.92;11.10;;;;;;;;;;6202498;28;20053;-85
2021/10/08 17:36:40;;;;;;;13.73;9.05;;;;;;;;;;6190875;28;20057;-84
2021/10/08 17:39:41;;;;;;;16.70;11.10;;;;;;;;;;6189548;28;20049;-81
2021/10/08 17:42:43;;;;;;;15.00;10.40;;;;;;;;;;6175443;28;20061;-82
2021/10/08 17:45:45;;;;;;;16.80;10.90;;;;;;;;;;6199810;28;20043;-82
2021/10/08 17:48:51;;;;;;;16.00;11.10;;;;;;;;;;6190070;28;20057;-81
2021/10/08 17:51:52;;;;;;;17.65;10.93;;;;;;;;;;6189971;28;20061;-81
2021/10/08 17:54:54;;;;;;;18.33;11.13;;;;;;;;;;6190345;28;20137;-82
2021/10/08 17:57:56;;;;;;;19.40;13.75;;;;;;;;;;6191875;28;20076;-81
2021/10/08 18:04:09;;;;;;;21.88;14.63;;;;;;;;;;6190481;28;20053;-83
2021/10/08 18:07:10;;;;;;;21.48;14.55;;;;;;;;;;6180037;28;20126;-82
2021/10/08 18:10:12;;;;;;;23.67;15.43;;;;;;;;;;6207994;28;20047;-81
2021/10/08 18:13:15;;;;;;;;;;;;;;;;;;6180301;28;20053;-80
2021/10/08 18:16:17;;;;;;;23.67;14.52;;;;;;;;;;6180005;28;19953;-81
2021/10/08 18:19:19;;;;;;;26.73;16.15;;;;;;;;;;6182789;28;20054;-82
2021/10/08 18:22:21;;;;;;;27.38;15.57;;;;;;;;;;6187317;28;21373;-81
2021/10/08 18:25:23;;;;;;;27.17;17.10;;;;;;;;;;6184824;28;20182;-82
2021/10/08 18:28:25;;;;;;;32.65;20.80;;;;;;;;;;6161267;28;20058;-83
2021/10/08 18:31:26;;;;;;;25.95;16.45;;;;;;;;;;6190261;28;20045;-82